Time;durP1;ratioP1;P1;durP2;ratioP2;P2;SDS_P1;SDS_P2;PMS_P1;PMS_P2;Temp;Humidity;BMP_temperature;BMP_pressure;BME280_temperature;BME280_humidity;BME280_pressure;Samples;Min_cycle;Max_cycle;Signal;HPM_P1;HPM_P2
2023/06/13 00:00:27;;;;;;;2.70;2.60;;;;;;;;;;5175683;23;20111;-58
2023/06/13 00:02:47;;;;;;;3.75;3.28;;;;;;;;;;5152972;23;20030;-59
2023/06/13 00:05:10;;;;;;;3.50;3.40;;;;;;;;;;5175494;23;20027;-58
2023/06/13 00:07:32;;;;;;;3.65;3.55;;;;;;;;;;5175577;23;20126;-58
2023/06/13 00:09:53;;;;;;;3.35;3.17;;;;;;;;;;5175609;23;20035;-58
2023/06/13 00:12:13;;;;;;;2.83;2.63;;;;;;;;;;5175533;23;20022;-59
2023/06/13 00:14:33;;;;;;;2.58;2.47;;;;;;;;;;5153099;23;20392;-58
2023/06/13 00:16:54;;;;;;;2.72;2.58;;;;;;;;;;5175653;23;20114;-58
2023/06/13 00:19:15;;;;;;;2.58;2.58;;;;;;;;;;5175475;23;20022;-58
2023/06/13 00:21:38;;;;;;;2.55;2.55;;;;;;;;;;5175551;23;20035;-58
2023/06/13 00:23:58;;;;;;;2.67;2.50;;;;;;;;;;5175579;23;20023;-58
2023/06/13 00:26:19;;;;;;;2.90;2.72;;;;;;;;;;5174764;23;20251;-58
2023/06/13 00:28:39;;;;;;;3.67;2.08;;;;;;;;;;5175388;23;20330;-58
2023/06/13 00:30:59;;;;;;;3.28;2.75;;;;;;;;;;5175396;23;20035;-58
2023/06/13 00:33:20;;;;;;;3.42;3.20;;;;;;;;;;5175488;23;20023;-59
2023/06/13 00:35:40;;;;;;;2.15;2.05;;;;;;;;;;5175324;23;20065;-59
2023/06/13 00:38:01;;;;;;;2.80;2.63;;;;;;;;;;5175435;23;20057;-59
2023/06/13 00:40:22;;;;;;;2.53;2.53;;;;;;;;;;5175314;22;20035;-59
2023/06/13 00:42:42;;;;;;;2.95;2.80;;;;;;;;;;5175391;23;20330;-58
2023/06/13 00:45:19;;;;;;;2.63;2.53;;;;;;;;;;5175203;23;20031;-58
2023/06/13 00:47:39;;;;;;;3.60;3.50;;;;;;;;;;5175339;23;20062;-59
2023/06/13 00:50:00;;;;;;;2.92;2.70;;;;;;;;;;5175299;23;20063;-59
2023/06/13 00:52:20;;;;;;;3.20;3.20;;;;;;;;;;5175227;23;20031;-58
2023/06/13 00:54:40;;;;;;;2.83;2.63;;;;;;;;;;5175301;23;20066;-58
2023/06/13 00:57:00;;;;;;;2.95;2.85;;;;;;;;;;5175441;23;20023;-58
2023/06/13 00:59:21;;;;;;;2.38;2.38;;;;;;;;;;5175234;23;20058;-58
2023/06/13 01:01:43;;;;;;;3.47;3.17;;;;;;;;;;5175416;23;20023;-59
2023/06/13 01:04:04;;;;;;;3.40;3.35;;;;;;;;;;5189103;22;20022;-61
2023/06/13 01:06:24;;;;;;;3.53;2.90;;;;;;;;;;5178573;22;20134;-61
2023/06/13 01:08:45;;;;;;;2.45;2.45;;;;;;;;;;5201302;22;20022;-61
2023/06/13 01:11:12;;;;;;;5.22;4.13;;;;;;;;;;5201185;22;20026;-61
2023/06/13 01:13:36;;;;;;;2.70;2.60;;;;;;;;;;5200883;22;20078;-61
2023/06/13 01:16:04;;;;;;;2.33;2.22;;;;;;;;;;5201161;22;20022;-61
2023/06/13 01:18:25;;;;;;;3.22;3.15;;;;;;;;;;5201214;22;20345;-61
2023/06/13 01:20:46;;;;;;;2.75;2.55;;;;;;;;;;5201128;22;20030;-61
2023/06/13 01:23:22;;;;;;;3.20;3.10;;;;;;;;;;5201111;22;20065;-61
2023/06/13 01:25:52;;;;;;;3.58;3.08;;;;;;;;;;5201103;22;20038;-61
2023/06/13 01:28:13;;;;;;;3.17;3.17;;;;;;;;;;5178215;22;20074;-61
2023/06/13 01:30:34;;;;;;;2.72;2.67;;;;;;;;;;5201057;22;20034;-61
2023/06/13 01:32:55;;;;;;;3.38;3.17;;;;;;;;;;5201026;22;20376;-61
2023/06/13 01:35:17;;;;;;;2.33;2.33;;;;;;;;;;5201074;22;20057;-61
2023/06/13 01:37:37;;;;;;;3.40;3.35;;;;;;;;;;5201096;22;20046;-61
2023/06/13 01:39:57;;;;;;;3.00;2.90;;;;;;;;;;5208939;22;20057;-61
2023/06/13 01:42:17;;;;;;;3.53;3.53;;;;;;;;;;5227752;22;20038;-61
2023/06/13 01:44:38;;;;;;;3.10;2.85;;;;;;;;;;5227701;22;20073;-61
2023/06/13 01:47:20;;;;;;;3.40;3.08;;;;;;;;;;5227869;22;20053;-61
2023/06/13 01:50:01;;;;;;;2.65;2.45;;;;;;;;;;5227834;22;20061;-61
2023/06/13 01:52:37;;;;;;;4.20;3.90;;;;;;;;;;5227817;22;20046;-61
2023/06/13 01:55:03;;;;;;;3.92;3.72;;;;;;;;;;5204782;22;20058;-61
2023/06/13 01:57:27;;;;;;;3.88;3.67;;;;;;;;;;5227680;22;20026;-61
2023/06/13 01:59:52;;;;;;;4.10;3.35;;;;;;;;;;5227798;22;20061;-60
2023/06/13 02:02:14;;;;;;;4.00;3.88;;;;;;;;;;5227836;22;20046;-61
2023/06/13 02:04:43;;;;;;;3.80;3.70;;;;;;;;;;5227580;22;20026;-61
2023/06/13 02:07:04;;;;;;;3.55;3.47;;;;;;;;;;5227633;22;20079;-61
2023/06/13 02:09:24;;;;;;;3.90;2.97;;;;;;;;;;5227679;22;20057;-61
2023/06/13 02:11:45;;;;;;;2.60;2.50;;;;;;;;;;5227732;22;20115;-60
2023/06/13 02:14:06;;;;;;;3.38;2.85;;;;;;;;;;5227610;22;20339;-60
2023/06/13 02:16:29;;;;;;;3.13;2.92;;;;;;;;;;5227600;22;20061;-61
2023/06/13 02:18:49;;;;;;;3.55;3.45;;;;;;;;;;5227687;22;20207;-61
2023/06/13 02:21:10;;;;;;;3.38;3.28;;;;;;;;;;5227619;22;20025;-61
2023/06/13 02:23:31;;;;;;;3.72;3.00;;;;;;;;;;5236146;22;20030;-61
2023/06/13 02:25:51;;;;;;;2.92;2.83;;;;;;;;;;5236172;22;20091;-61
2023/06/13 02:28:12;;;;;;;3.20;2.97;;;;;;;;;;5227563;22;20030;-61
2023/06/13 02:30:32;;;;;;;3.70;2.58;;;;;;;;;;5227549;22;20214;-60
2023/06/13 02:32:52;;;;;;;3.28;2.97;;;;;;;;;;5227554;22;20076;-61
2023/06/13 02:35:13;;;;;;;2.78;2.78;;;;;;;;;;5227635;22;20022;-61
2023/06/13 02:37:34;;;;;;;3.25;3.22;;;;;;;;;;5225922;22;20026;-61
2023/06/13 02:39:54;;;;;;;2.78;2.58;;;;;;;;;;5227582;22;20046;-61
2023/06/13 02:42:14;;;;;;;3.30;3.00;;;;;;;;;;5202636;22;20118;-61
2023/06/13 02:44:34;;;;;;;2.67;2.67;;;;;;;;;;5227389;22;20080;-61
2023/06/13 02:46:55;;;;;;;3.25;2.65;;;;;;;;;;5227534;22;20026;-61
2023/06/13 02:49:15;;;;;;;2.95;2.95;;;;;;;;;;5227121;22;20030;-61
2023/06/13 02:51:35;;;;;;;3.90;3.00;;;;;;;;;;5227438;22;20057;-61
2023/06/13 02:53:55;;;;;;;2.70;2.50;;;;;;;;;;5227465;22;20021;-61
2023/06/13 02:56:15;;;;;;;3.65;3.55;;;;;;;;;;5227464;22;20046;-61
2023/06/13 02:58:36;;;;;;;3.78;3.67;;;;;;;;;;5227500;22;20068;-61
2023/06/13 03:00:56;;;;;;;3.75;3.65;;;;;;;;;;5227393;22;20307;-61
2023/06/13 03:03:18;;;;;;;5.32;3.25;;;;;;;;;;5227523;22;20060;-60
2023/06/13 03:05:38;;;;;;;3.28;3.08;;;;;;;;;;5227390;22;20080;-61
2023/06/13 03:07:59;;;;;;;3.22;3.03;;;;;;;;;;5227502;22;20026;-60
2023/06/13 03:10:19;;;;;;;3.42;3.33;;;;;;;;;;5227412;22;20050;-61
2023/06/13 03:12:40;;;;;;;3.30;3.20;;;;;;;;;;5227518;22;20056;-61
2023/06/13 03:15:00;;;;;;;3.47;2.65;;;;;;;;;;5227404;22;20022;-61
2023/06/13 03:17:21;;;;;;;3.70;3.47;;;;;;;;;;5227433;22;20379;-61
2023/06/13 03:19:41;;;;;;;3.42;3.33;;;;;;;;;;5204561;22;20023;-61
2023/06/13 03:22:01;;;;;;;3.50;3.40;;;;;;;;;;5227411;22;20045;-61
2023/06/13 03:24:22;;;;;;;3.22;3.13;;;;;;;;;;5227251;22;20023;-61
2023/06/13 03:26:42;;;;;;;3.55;3.47;;;;;;;;;;5227365;22;20025;-61
2023/06/13 03:29:05;;;;;;;3.85;3.50;;;;;;;;;;5227350;22;20038;-61
2023/06/13 03:31:25;;;;;;;4.45;4.13;;;;;;;;;;5227244;22;20026;-61
2023/06/13 03:33:46;;;;;;;3.90;3.80;;;;;;;;;;5227327;22;20022;-61
2023/06/13 03:36:06;;;;;;;3.75;3.67;;;;;;;;;;5204436;22;20030;-61
2023/06/13 03:38:27;;;;;;;3.83;3.65;;;;;;;;;;5227252;22;20025;-61
2023/06/13 03:40:47;;;;;;;3.47;3.38;;;;;;;;;;5227215;22;20022;-61
2023/06/13 03:43:08;;;;;;;5.65;4.28;;;;;;;;;;5227384;22;20026;-61
2023/06/13 03:45:28;;;;;;;3.97;3.88;;;;;;;;;;5227173;22;20030;-60
2023/06/13 03:47:48;;;;;;;4.45;4.10;;;;;;;;;;5227270;22;20348;-61
2023/06/13 03:50:08;;;;;;;4.70;4.43;;;;;;;;;;5227337;22;20025;-60
2023/06/13 03:52:29;;;;;;;4.13;4.03;;;;;;;;;;5235844;22;20026;-61
2023/06/13 03:54:51;;;;;;;4.30;4.20;;;;;;;;;;5227124;22;20026;-61
2023/06/13 03:57:12;;;;;;;4.18;4.07;;;;;;;;;;5227189;22;20022;-61
2023/06/13 03:59:33;;;;;;;3.85;3.55;;;;;;;;;;5227268;22;20026;-61
2023/06/13 04:01:53;;;;;;;4.40;4.20;;;;;;;;;;5227080;22;20061;-61
2023/06/13 04:04:13;;;;;;;3.83;3.63;;;;;;;;;;5227191;22;20210;-61
2023/06/13 04:06:34;;;;;;;3.92;3.83;;;;;;;;;;5227273;22;20065;-61
2023/06/13 04:08:57;;;;;;;3.70;3.60;;;;;;;;;;5227150;22;20365;-61
2023/06/13 04:11:17;;;;;;;3.38;3.28;;;;;;;;;;5227173;22;20064;-61
2023/06/13 04:13:37;;;;;;;3.42;3.33;;;;;;;;;;5227307;22;20022;-60
2023/06/13 04:15:58;;;;;;;3.72;3.63;;;;;;;;;;5227244;22;20376;-61
2023/06/13 04:18:18;;;;;;;3.42;3.33;;;;;;;;;;5227147;22;20034;-60
2023/06/13 04:20:38;;;;;;;3.13;3.13;;;;;;;;;;5227175;22;20075;-60
2023/06/13 04:22:58;;;;;;;4.57;4.38;;;;;;;;;;5227119;22;20371;-60
2023/06/13 04:25:19;;;;;;;2.72;2.72;;;;;;;;;;5226903;22;20038;-60
2023/06/13 04:27:39;;;;;;;3.90;3.67;;;;;;;;;;5227115;22;20026;-61
2023/06/13 04:29:59;;;;;;;3.45;3.22;;;;;;;;;;5227151;22;20022;-61
2023/06/13 04:32:23;;;;;;;4.18;3.63;;;;;;;;;;5227066;22;20073;-61
2023/06/13 04:34:44;;;;;;;3.38;3.28;;;;;;;;;;5227082;22;20026;-61
2023/06/13 04:37:04;;;;;;;3.67;3.47;;;;;;;;;;5227145;22;20050;-60
2023/06/13 04:39:24;;;;;;;4.53;3.22;;;;;;;;;;5227088;22;20332;-61
2023/06/13 04:41:48;;;;;;;3.75;3.45;;;;;;;;;;5227062;22;20023;-61
2023/06/13 04:44:09;;;;;;;3.30;2.88;;;;;;;;;;5226937;22;20022;-61
2023/06/13 04:46:30;;;;;;;3.28;3.08;;;;;;;;;;5226991;22;20023;-60
2023/06/13 04:48:51;;;;;;;4.32;3.88;;;;;;;;;;5226882;22;20027;-60
2023/06/13 04:51:11;;;;;;;3.67;3.17;;;;;;;;;;5226957;22;20248;-61
2023/06/13 04:53:37;;;;;;;3.75;3.55;;;;;;;;;;5227065;22;20065;-61
2023/06/13 04:55:58;;;;;;;4.35;3.95;;;;;;;;;;5226968;22;20034;-61
2023/06/13 04:58:19;;;;;;;3.45;3.35;;;;;;;;;;5227083;22;20117;-61
2023/06/13 05:00:40;;;;;;;3.88;3.70;;;;;;;;;;5227000;22;20086;-61
2023/06/13 05:03:01;;;;;;;4.18;4.07;;;;;;;;;;5226958;22;20022;-61
2023/06/13 05:05:22;;;;;;;4.00;3.70;;;;;;;;;;5226736;22;20026;-61
2023/06/13 05:07:43;;;;;;;3.80;3.60;;;;;;;;;;5203881;22;20023;-61
2023/06/13 05:10:03;;;;;;;3.33;3.22;;;;;;;;;;5226865;22;20027;-61
2023/06/13 05:12:24;;;;;;;4.30;4.00;;;;;;;;;;5226752;22;20329;-61
2023/06/13 05:14:44;;;;;;;3.33;3.20;;;;;;;;;;5227882;22;20023;-61
2023/06/13 05:17:05;;;;;;;3.38;3.08;;;;;;;;;;5227925;22;20121;-61
2023/06/13 05:19:26;;;;;;;2.88;2.67;;;;;;;;;;5227859;22;20022;-62
2023/06/13 05:21:47;;;;;;;4.07;3.10;;;;;;;;;;5204944;22;20050;-61
2023/06/13 05:24:10;;;;;;;2.70;2.70;;;;;;;;;;5227871;22;20069;-61
2023/06/13 05:26:30;;;;;;;3.20;3.00;;;;;;;;;;5202341;22;20026;-62
2023/06/13 05:28:51;;;;;;;2.85;2.78;;;;;;;;;;5227846;22;20348;-61
2023/06/13 05:31:12;;;;;;;2.75;2.70;;;;;;;;;;5227816;22;20057;-61
2023/06/13 05:33:34;;;;;;;3.20;3.00;;;;;;;;;;5227817;22;20054;-61
2023/06/13 05:35:54;;;;;;;3.15;2.97;;;;;;;;;;5227703;22;20022;-61
2023/06/13 05:38:18;;;;;;;2.45;2.45;;;;;;;;;;5227796;22;20321;-61
2023/06/13 05:40:39;;;;;;;2.83;2.70;;;;;;;;;;5227731;22;20042;-60
2023/06/13 05:42:59;;;;;;;2.97;2.88;;;;;;;;;;5227738;22;20022;-61
2023/06/13 05:45:20;;;;;;;2.72;2.53;;;;;;;;;;5227621;22;20079;-61
2023/06/13 05:47:41;;;;;;;2.80;2.70;;;;;;;;;;5227792;22;20057;-60
2023/06/13 05:50:01;;;;;;;3.50;2.90;;;;;;;;;;5227733;22;20344;-61
2023/06/13 05:52:21;;;;;;;2.85;2.85;;;;;;;;;;5227709;22;20022;-60
2023/06/13 05:54:43;;;;;;;3.28;3.08;;;;;;;;;;5227742;22;20057;-60
2023/06/13 05:57:04;;;;;;;2.83;2.72;;;;;;;;;;5227674;22;20045;-60
2023/06/13 05:59:24;;;;;;;3.33;3.08;;;;;;;;;;5227610;22;20022;-60
2023/06/13 06:01:49;;;;;;;2.92;2.78;;;;;;;;;;5227705;22;20352;-60
2023/06/13 06:04:10;;;;;;;3.70;3.60;;;;;;;;;;5227696;22;20055;-60
2023/06/13 06:06:30;;;;;;;3.10;3.00;;;;;;;;;;5227651;22;20065;-61
2023/06/13 06:08:51;;;;;;;4.32;2.40;;;;;;;;;;5227712;22;20382;-61
2023/06/13 06:11:11;;;;;;;1.95;1.95;;;;;;;;;;5227720;22;20049;-60
2023/06/13 06:13:31;;;;;;;2.08;1.98;;;;;;;;;;5224666;22;20075;-61
2023/06/13 06:15:52;;;;;;;2.80;1.77;;;;;;;;;;5227650;22;20022;-61
2023/06/13 06:18:12;;;;;;;1.60;1.60;;;;;;;;;;5227636;22;20041;-61
2023/06/13 06:20:33;;;;;;;1.70;1.60;;;;;;;;;;5202447;22;20061;-61
2023/06/13 06:22:53;;;;;;;1.73;1.63;;;;;;;;;;5227414;22;20027;-62
2023/06/13 06:25:19;;;;;;;1.73;1.63;;;;;;;;;;5227412;22;20022;-62
2023/06/13 06:27:42;;;;;;;1.95;1.85;;;;;;;;;;5227737;22;20022;-62
2023/06/13 06:30:04;;;;;;;3.08;1.65;;;;;;;;;;5227547;22;20022;-61
2023/06/13 06:32:25;;;;;;;1.85;1.70;;;;;;;;;;5227581;22;20030;-61
2023/06/13 06:34:45;;;;;;;4.22;2.25;;;;;;;;;;5227566;22;20026;-62
2023/06/13 06:37:05;;;;;;;1.92;1.92;;;;;;;;;;5227551;22;20021;-60
2023/06/13 06:39:26;;;;;;;1.30;1.30;;;;;;;;;;5227420;22;20026;-60
2023/06/13 06:41:46;;;;;;;1.70;1.63;;;;;;;;;;5204601;22;20022;-61
2023/06/13 06:44:07;;;;;;;1.30;1.30;;;;;;;;;;5227462;22;20025;-61
2023/06/13 06:46:27;;;;;;;1.50;1.50;;;;;;;;;;5227419;22;20026;-61
2023/06/13 06:48:47;;;;;;;1.35;1.30;;;;;;;;;;5204570;22;20051;-61
2023/06/13 06:51:08;;;;;;;1.88;1.65;;;;;;;;;;5227545;22;20026;-61
2023/06/13 06:53:28;;;;;;;1.73;1.45;;;;;;;;;;5227513;22;20021;-61
2023/06/13 06:55:48;;;;;;;1.30;1.30;;;;;;;;;;5227480;22;20022;-61
2023/06/13 06:58:09;;;;;;;1.30;1.30;;;;;;;;;;5227558;22;20065;-61
2023/06/13 07:00:29;;;;;;;1.20;1.20;;;;;;;;;;5227510;22;20046;-61
2023/06/13 07:02:50;;;;;;;1.38;1.25;;;;;;;;;;5227454;22;20065;-61
2023/06/13 07:05:12;;;;;;;1.30;1.20;;;;;;;;;;5227445;22;20045;-61
2023/06/13 07:07:35;;;;;;;1.73;1.00;;;;;;;;;;5227530;22;20061;-61
2023/06/13 07:09:55;;;;;;;1.30;1.30;;;;;;;;;;5227366;22;20273;-61
2023/06/13 07:12:16;;;;;;;1.42;1.02;;;;;;;;;;5227319;22;20026;-61
2023/06/13 07:14:36;;;;;;;1.20;1.20;;;;;;;;;;5227446;22;20087;-61
2023/06/13 07:16:56;;;;;;;2.25;1.10;;;;;;;;;;5227322;22;20021;-61
2023/06/13 07:19:16;;;;;;;1.17;1.00;;;;;;;;;;5204844;22;20078;-61
2023/06/13 07:21:36;;;;;;;2.15;1.10;;;;;;;;;;5227440;22;20041;-61
2023/06/13 07:23:56;;;;;;;1.00;1.00;;;;;;;;;;5227324;22;20026;-61
2023/06/13 07:26:27;;;;;;;1.33;1.27;;;;;;;;;;5227322;22;20333;-61
2023/06/13 07:28:48;;;;;;;1.00;1.00;;;;;;;;;;5227335;22;20034;-62
2023/06/13 07:31:08;;;;;;;1.27;1.00;;;;;;;;;;5227335;22;20026;-62
2023/06/13 07:33:29;;;;;;;0.90;0.90;;;;;;;;;;5227193;22;20340;-61
2023/06/13 07:35:52;;;;;;;0.95;0.95;;;;;;;;;;5226956;22;20057;-60
2023/06/13 07:38:12;;;;;;;1.85;1.00;;;;;;;;;;5227383;22;20026;-61
2023/06/13 07:40:33;;;;;;;0.95;0.95;;;;;;;;;;5227203;22;20209;-61
2023/06/13 07:42:54;;;;;;;1.00;1.00;;;;;;;;;;5227305;22;20060;-61
2023/06/13 07:45:14;;;;;;;0.80;0.80;;;;;;;;;;5227321;22;20026;-61
2023/06/13 07:47:36;;;;;;;1.45;0.90;;;;;;;;;;5227354;22;20092;-61
2023/06/13 07:49:56;;;;;;;0.98;0.90;;;;;;;;;;5235890;22;20099;-61
2023/06/13 07:52:16;;;;;;;0.90;0.90;;;;;;;;;;5227399;22;20075;-61
2023/06/13 07:54:37;;;;;;;1.25;0.80;;;;;;;;;;5227246;22;20022;-61
2023/06/13 07:56:57;;;;;;;0.80;0.80;;;;;;;;;;5227079;22;20049;-61
2023/06/13 07:59:18;;;;;;;0.98;0.95;;;;;;;;;;5227264;22;20352;-61
2023/06/13 08:01:38;;;;;;;0.73;0.73;;;;;;;;;;5227272;22;20034;-61
2023/06/13 08:03:58;;;;;;;0.80;0.80;;;;;;;;;;5227247;22;20022;-61
2023/06/13 08:06:18;;;;;;;1.00;0.80;;;;;;;;;;5201824;22;20070;-60
2023/06/13 08:08:39;;;;;;;0.80;0.80;;;;;;;;;;5227231;22;20080;-61
2023/06/13 08:11:00;;;;;;;1.10;0.70;;;;;;;;;;5227263;22;20022;-61
2023/06/13 08:13:20;;;;;;;0.70;0.70;;;;;;;;;;5227262;22;20034;-60
2023/06/13 08:15:40;;;;;;;0.70;0.70;;;;;;;;;;5227272;22;20042;-61
2023/06/13 08:18:01;;;;;;;0.70;0.70;;;;;;;;;;5227157;22;20355;-60
2023/06/13 08:20:21;;;;;;;0.75;0.75;;;;;;;;;;5227090;22;20023;-61
2023/06/13 08:22:41;;;;;;;0.70;0.70;;;;;;;;;;5227209;22;20363;-61
2023/06/13 08:25:02;;;;;;;0.70;0.70;;;;;;;;;;5227171;22;20033;-61
2023/06/13 08:27:24;;;;;;;2.47;0.80;;;;;;;;;;5227088;22;20021;-61
2023/06/13 08:29:44;;;;;;;1.33;0.80;;;;;;;;;;5227121;22;20026;-61
2023/06/13 08:32:05;;;;;;;1.58;1.02;;;;;;;;;;5227146;22;20021;-61
2023/06/13 08:34:26;;;;;;;0.70;0.70;;;;;;;;;;5227103;22;20236;-60
2023/06/13 08:36:46;;;;;;;0.80;0.80;;;;;;;;;;5235669;22;20324;-61
2023/06/13 08:39:07;;;;;;;0.70;0.70;;;;;;;;;;5227160;22;20214;-61
2023/06/13 08:41:28;;;;;;;0.98;0.70;;;;;;;;;;5227059;22;20290;-60
2023/06/13 08:43:49;;;;;;;1.52;0.70;;;;;;;;;;5227038;22;20027;-60
2023/06/13 08:46:10;;;;;;;0.70;0.70;;;;;;;;;;5227111;22;20026;-60
2023/06/13 08:48:32;;;;;;;1.85;0.70;;;;;;;;;;5226134;22;20087;-60
2023/06/13 08:50:53;;;;;;;0.85;0.70;;;;;;;;;;5226970;22;20027;-60
2023/06/13 08:53:17;;;;;;;0.70;0.70;;;;;;;;;;5226976;22;20023;-61
2023/06/13 08:55:40;;;;;;;0.80;0.80;;;;;;;;;;5227000;22;20080;-60
2023/06/13 08:58:04;;;;;;;1.48;0.70;;;;;;;;;;5235520;22;20034;-60
2023/06/13 09:00:25;;;;;;;1.75;0.70;;;;;;;;;;5226925;22;20210;-60
2023/06/13 09:02:46;;;;;;;0.80;0.80;;;;;;;;;;5226995;22;20026;-60
2023/06/13 09:05:07;;;;;;;1.48;0.90;;;;;;;;;;5226847;22;20022;-60
2023/06/13 09:07:28;;;;;;;0.82;0.82;;;;;;;;;;5226901;22;20061;-60
2023/06/13 09:09:52;;;;;;;0.80;0.80;;;;;;;;;;5226869;22;20030;-60
2023/06/13 09:12:16;;;;;;;0.70;0.70;;;;;;;;;;5226879;22;20025;-60
2023/06/13 09:14:36;;;;;;;1.85;1.33;;;;;;;;;;5226776;22;20064;-60
2023/06/13 09:16:57;;;;;;;0.70;0.70;;;;;;;;;;5226804;22;20381;-60
2023/06/13 09:19:18;;;;;;;0.68;0.68;;;;;;;;;;5226848;22;20065;-60
2023/06/13 09:21:40;;;;;;;1.88;0.70;;;;;;;;;;5226806;22;20022;-60
2023/06/13 09:24:01;;;;;;;0.70;0.70;;;;;;;;;;5226788;22;20379;-60
2023/06/13 09:26:22;;;;;;;0.60;0.60;;;;;;;;;;5226733;22;20030;-60
2023/06/13 09:28:45;;;;;;;0.60;0.60;;;;;;;;;;5226726;22;20037;-60
2023/06/13 09:31:06;;;;;;;0.60;0.60;;;;;;;;;;5226654;22;20153;-60
2023/06/13 09:33:27;;;;;;;0.70;0.70;;;;;;;;;;5226641;22;20022;-60
2023/06/13 09:35:47;;;;;;;0.65;0.65;;;;;;;;;;5203859;22;20038;-60
2023/06/13 09:38:12;;;;;;;0.60;0.60;;;;;;;;;;5226575;22;20062;-60
2023/06/13 09:40:33;;;;;;;0.52;0.52;;;;;;;;;;5203771;22;20047;-60
2023/06/13 09:42:54;;;;;;;0.70;0.70;;;;;;;;;;5226696;22;20026;-60
2023/06/13 09:45:34;;;;;;;0.60;0.60;;;;;;;;;;5226585;22;20057;-60
2023/06/13 09:47:55;;;;;;;1.15;1.15;;;;;;;;;;5226557;22;20034;-60
2023/06/13 09:50:16;;;;;;;0.60;0.60;;;;;;;;;;5203659;22;20332;-60
2023/06/13 09:52:38;;;;;;;0.60;0.60;;;;;;;;;;5203917;22;20333;-60
2023/06/13 09:54:59;;;;;;;2.25;0.60;;;;;;;;;;5226506;22;20171;-60
2023/06/13 09:57:22;;;;;;;1.50;0.50;;;;;;;;;;5226386;22;20069;-60
2023/06/13 09:59:58;;;;;;;0.60;0.60;;;;;;;;;;5227357;22;20092;-60
2023/06/13 10:02:20;;;;;;;0.60;0.60;;;;;;;;;;5227753;22;20022;-60
2023/06/13 10:04:41;;;;;;;0.60;0.60;;;;;;;;;;5227663;22;20106;-60
2023/06/13 10:07:02;;;;;;;0.95;0.60;;;;;;;;;;5227580;22;20054;-60
2023/06/13 10:09:22;;;;;;;0.60;0.60;;;;;;;;;;5227652;22;20052;-60
2023/06/13 10:11:44;;;;;;;0.60;0.60;;;;;;;;;;5227690;22;20050;-61
2023/06/13 10:14:08;;;;;;;2.28;0.60;;;;;;;;;;5227715;22;20329;-60
2023/06/13 10:16:29;;;;;;;1.27;0.73;;;;;;;;;;5227615;22;20341;-60
2023/06/13 10:18:52;;;;;;;0.60;0.60;;;;;;;;;;5227712;22;20026;-60
2023/06/13 10:21:13;;;;;;;0.60;0.60;;;;;;;;;;5225976;22;20038;-61
2023/06/13 10:23:37;;;;;;;0.60;0.60;;;;;;;;;;5227667;22;20343;-62
2023/06/13 10:25:58;;;;;;;0.60;0.60;;;;;;;;;;5227488;22;20037;-60
2023/06/13 10:28:39;;;;;;;0.70;0.70;;;;;;;;;;5227656;22;20349;-59
2023/06/13 10:31:26;;;;;;;0.93;0.70;;;;;;;;;;5227559;22;20026;-59
2023/06/13 10:33:54;;;;;;;0.70;0.70;;;;;;;;;;5197226;22;20093;-59
2023/06/13 10:36:36;;;;;;;1.40;0.60;;;;;;;;;;5227611;22;20021;-60
2023/06/13 10:39:09;;;;;;;0.70;0.70;;;;;;;;;;5227579;22;20248;-59
2023/06/13 10:41:38;;;;;;;0.70;0.70;;;;;;;;;;5227589;22;20022;-59
2023/06/13 10:43:58;;;;;;;0.90;0.90;;;;;;;;;;5227522;22;20034;-59
2023/06/13 10:46:19;;;;;;;0.80;0.80;;;;;;;;;;5227550;22;20022;-59
2023/06/13 10:48:46;;;;;;;0.95;0.80;;;;;;;;;;5227503;22;20046;-59
2023/06/13 10:51:10;;;;;;;1.85;0.70;;;;;;;;;;5227484;22;20087;-59
2023/06/13 10:53:33;;;;;;;1.00;1.00;;;;;;;;;;5227503;22;20037;-59
2023/06/13 10:55:59;;;;;;;0.80;0.80;;;;;;;;;;5227528;22;20022;-59
2023/06/13 10:58:25;;;;;;;1.00;1.00;;;;;;;;;;5227584;22;20213;-59
2023/06/13 11:00:46;;;;;;;0.90;0.90;;;;;;;;;;5227501;22;20053;-60
2023/06/13 11:03:06;;;;;;;3.70;0.80;;;;;;;;;;5227512;22;20210;-59
2023/06/13 11:05:27;;;;;;;1.15;0.90;;;;;;;;;;5227358;22;20026;-60
2023/06/13 11:08:05;;;;;;;0.90;0.90;;;;;;;;;;5227428;22;20030;-59
2023/06/13 11:10:25;;;;;;;0.90;0.90;;;;;;;;;;5226857;22;20033;-59
2023/06/13 11:12:46;;;;;;;3.90;1.00;;;;;;;;;;5227501;22;20022;-59
2023/06/13 11:15:20;;;;;;;0.90;0.90;;;;;;;;;;5227498;22;20372;-59
2023/06/13 11:17:41;;;;;;;5.20;1.50;;;;;;;;;;5227337;22;20026;-59
2023/06/13 11:20:01;;;;;;;0.90;0.90;;;;;;;;;;5227330;22;20073;-59
2023/06/13 11:22:21;;;;;;;0.80;0.80;;;;;;;;;;5227435;22;20026;-59
2023/06/13 11:24:42;;;;;;;0.90;0.90;;;;;;;;;;5227235;22;20083;-59
2023/06/13 11:27:13;;;;;;;1.05;1.05;;;;;;;;;;5227420;22;20064;-59
2023/06/13 11:29:34;;;;;;;0.90;0.90;;;;;;;;;;5227332;22;20092;-59
2023/06/13 11:31:55;;;;;;;0.90;0.90;;;;;;;;;;5227359;22;20218;-59
2023/06/13 11:34:17;;;;;;;0.90;0.90;;;;;;;;;;5227304;22;20060;-59
2023/06/13 11:36:41;;;;;;;1.30;0.80;;;;;;;;;;5227305;22;20022;-59
2023/06/13 11:39:04;;;;;;;0.80;0.80;;;;;;;;;;5227379;22;20026;-59
2023/06/13 11:41:24;;;;;;;0.90;0.90;;;;;;;;;;5227196;22;20022;-59
2023/06/13 11:43:45;;;;;;;0.90;0.90;;;;;;;;;;5227299;22;20118;-59
2023/06/13 11:46:06;;;;;;;0.90;0.90;;;;;;;;;;5227173;22;20033;-59
2023/06/13 11:48:26;;;;;;;1.05;1.00;;;;;;;;;;5227218;22;20067;-60
2023/06/13 11:51:09;;;;;;;0.80;0.80;;;;;;;;;;5227269;22;20026;-59
2023/06/13 11:53:30;;;;;;;0.80;0.80;;;;;;;;;;5227253;22;20061;-59
2023/06/13 11:56:04;;;;;;;0.80;0.80;;;;;;;;;;5227234;22;20359;-60
2023/06/13 11:58:30;;;;;;;5.13;0.80;;;;;;;;;;5227353;22;20026;-59
2023/06/13 12:00:54;;;;;;;1.50;0.80;;;;;;;;;;5227282;22;20060;-59
2023/06/13 12:03:17;;;;;;;1.38;0.80;;;;;;;;;;5227104;22;20091;-59
2023/06/13 12:05:37;;;;;;;;;;;;;;;;;;5227609;22;20026;-59
2023/06/13 12:07:58;;;;;;;0.98;0.98;;;;;;;;;;5227258;22;20259;-58
2023/06/13 12:10:19;;;;;;;1.50;1.42;;;;;;;;;;5227178;22;20026;-58
2023/06/13 12:12:40;;;;;;;2.75;1.10;;;;;;;;;;5227075;22;20022;-59
2023/06/13 12:15:02;;;;;;;1.50;1.40;;;;;;;;;;5227335;22;20344;-60
2023/06/13 12:17:23;;;;;;;1.30;1.10;;;;;;;;;;5227215;22;20065;-59
2023/06/13 12:19:46;;;;;;;4.00;1.08;;;;;;;;;;5227502;22;20057;-62
2023/06/13 12:22:08;;;;;;;1.00;1.00;;;;;;;;;;5227018;22;20332;-61
2023/06/13 12:24:28;;;;;;;1.85;1.00;;;;;;;;;;5227043;22;20022;-61
2023/06/13 12:26:49;;;;;;;1.50;1.40;;;;;;;;;;5227095;22;20025;-61
2023/06/13 12:29:11;;;;;;;1.20;1.10;;;;;;;;;;5227197;22;20056;-61
2023/06/13 12:31:37;;;;;;;1.38;1.10;;;;;;;;;;5227262;22;20034;-61
2023/06/13 12:34:16;;;;;;;1.20;1.20;;;;;;;;;;5227208;22;20214;-61
2023/06/13 12:36:42;;;;;;;1.30;1.30;;;;;;;;;;5227087;22;20042;-60
2023/06/13 12:39:05;;;;;;;1.10;1.10;;;;;;;;;;5227098;22;20026;-61
2023/06/13 12:41:26;;;;;;;3.50;1.10;;;;;;;;;;5235662;22;20026;-61
2023/06/13 12:43:47;;;;;;;1.83;1.00;;;;;;;;;;5227089;22;20252;-61
2023/06/13 12:46:08;;;;;;;2.83;1.00;;;;;;;;;;5203886;22;20042;-61
2023/06/13 12:48:29;;;;;;;1.55;1.00;;;;;;;;;;5204129;22;20023;-61
2023/06/13 12:50:54;;;;;;;3.10;1.00;;;;;;;;;;5226987;22;20054;-60
2023/06/13 12:53:19;;;;;;;0.90;0.90;;;;;;;;;;5226930;22;20022;-61
2023/06/13 12:55:41;;;;;;;1.63;0.80;;;;;;;;;;5226954;22;20057;-60
2023/06/13 12:58:02;;;;;;;1.40;0.90;;;;;;;;;;5204145;22;20027;-60
2023/06/13 13:00:22;;;;;;;0.88;0.88;;;;;;;;;;5226931;22;20022;-60
2023/06/13 13:02:42;;;;;;;4.35;0.90;;;;;;;;;;5226864;22;20076;-61
2023/06/13 13:05:03;;;;;;;2.50;0.85;;;;;;;;;;5226781;22;20116;-61
2023/06/13 13:07:42;;;;;;;1.33;1.05;;;;;;;;;;5235551;22;20026;-61
2023/06/13 13:10:03;;;;;;;1.02;0.90;;;;;;;;;;5226889;22;20052;-61
2023/06/13 13:12:25;;;;;;;6.18;1.33;;;;;;;;;;5235650;22;20025;-59
2023/06/13 13:14:45;;;;;;;5.63;0.98;;;;;;;;;;5235409;22;20022;-59
2023/06/13 13:17:05;;;;;;;0.80;0.80;;;;;;;;;;5226753;22;20026;-59
2023/06/13 13:19:26;;;;;;;1.10;0.80;;;;;;;;;;5226758;22;20022;-60
2023/06/13 13:21:50;;;;;;;0.80;0.80;;;;;;;;;;5226823;22;20021;-59
2023/06/13 13:24:10;;;;;;;4.07;0.80;;;;;;;;;;5226801;22;20038;-60
2023/06/13 13:26:31;;;;;;;1.98;0.90;;;;;;;;;;5226781;22;20039;-60
2023/06/13 13:28:51;;;;;;;0.98;0.90;;;;;;;;;;5226726;22;20037;-61
2023/06/13 13:31:11;;;;;;;1.95;1.15;;;;;;;;;;5226756;22;20076;-60
2023/06/13 13:33:31;;;;;;;0.98;0.90;;;;;;;;;;5226750;22;20341;-61
2023/06/13 13:35:52;;;;;;;0.90;0.90;;;;;;;;;;5227818;22;20050;-60
2023/06/13 13:38:12;;;;;;;1.00;1.00;;;;;;;;;;5227674;22;20349;-60
2023/06/13 13:40:33;;;;;;;1.67;1.00;;;;;;;;;;5227687;22;20060;-60
2023/06/13 13:42:54;;;;;;;0.88;0.88;;;;;;;;;;5227704;22;20025;-60
2023/06/13 13:45:15;;;;;;;0.90;0.90;;;;;;;;;;5227598;22;20427;-60
2023/06/13 13:47:36;;;;;;;0.80;0.80;;;;;;;;;;5227786;22;20078;-60
2023/06/13 13:49:58;;;;;;;0.90;0.90;;;;;;;;;;5227824;22;20124;-60
2023/06/13 13:52:18;;;;;;;1.00;1.00;;;;;;;;;;5227748;22;20079;-60
2023/06/13 13:54:38;;;;;;;2.08;0.95;;;;;;;;;;5227813;22;20049;-60
2023/06/13 13:56:59;;;;;;;0.90;0.90;;;;;;;;;;5227706;22;20026;-60
2023/06/13 13:59:21;;;;;;;0.90;0.90;;;;;;;;;;5227689;22;20030;-61
2023/06/13 14:01:41;;;;;;;0.93;0.90;;;;;;;;;;5227692;22;20026;-61
2023/06/13 14:04:01;;;;;;;0.90;0.90;;;;;;;;;;5227640;22;20022;-60
2023/06/13 14:06:22;;;;;;;1.10;1.10;;;;;;;;;;5227645;22;20058;-60
2023/06/13 14:08:42;;;;;;;1.23;0.90;;;;;;;;;;5227580;22;20261;-60
2023/06/13 14:11:02;;;;;;;0.88;0.88;;;;;;;;;;5227718;22;20307;-60